sensor_id;sensor_type;location;lat;lon;timestamp;P1;durP1;ratioP1;P2;durP2;ratioP2
51179;SDS011;37243;49.814;8.652;2022-10-04T00:00:51;2.08;;;1.98;;
51179;SDS011;37243;49.814;8.652;2022-10-04T00:03:27;2.13;;;2.03;;
51179;SDS011;37243;49.814;8.652;2022-10-04T00:06:00;2.60;;;2.50;;
51179;SDS011;37243;49.814;8.652;2022-10-04T00:08:30;2.10;;;2.00;;
51179;SDS011;37243;49.814;8.652;2022-10-04T00:11:13;2.28;;;2.10;;
51179;SDS011;37243;49.814;8.652;2022-10-04T00:13:47;1.75;;;1.73;;
51179;SDS011;37243;49.814;8.652;2022-10-04T00:16:21;2.17;;;2.08;;
51179;SDS011;37243;49.814;8.652;2022-10-04T00:19:00;2.30;;;2.20;;
51179;SDS011;37243;49.814;8.652;2022-10-04T00:33:54;2.13;;;2.03;;
51179;SDS011;37243;49.814;8.652;2022-10-04T00:36:38;2.38;;;2.17;;
51179;SDS011;37243;49.814;8.652;2022-10-04T00:39:15;2.10;;;2.00;;
51179;SDS011;37243;49.814;8.652;2022-10-04T00:41:53;1.98;;;1.88;;
51179;SDS011;37243;49.814;8.652;2022-10-04T00:44:29;2.22;;;2.03;;
51179;SDS011;37243;49.814;8.652;2022-10-04T00:47:16;2.20;;;1.98;;
51179;SDS011;37243;49.814;8.652;2022-10-04T00:49:51;2.05;;;1.95;;
51179;SDS011;37243;49.814;8.652;2022-10-04T00:52:25;2.10;;;2.00;;
51179;SDS011;37243;49.814;8.652;2022-10-04T00:54:58;1.90;;;1.80;;
51179;SDS011;37243;49.814;8.652;2022-10-04T00:57:32;2.13;;;2.03;;
51179;SDS011;37243;49.814;8.652;2022-10-04T01:00:07;2.08;;;1.98;;
51179;SDS011;37243;49.814;8.652;2022-10-04T01:02:48;2.15;;;2.05;;
51179;SDS011;37243;49.814;8.652;2022-10-04T01:05:20;1.98;;;1.88;;
51179;SDS011;37243;49.814;8.652;2022-10-04T01:07:53;1.98;;;1.88;;
51179;SDS011;37243;49.814;8.652;2022-10-04T01:10:24;2.33;;;1.98;;
51179;SDS011;37243;49.814;8.652;2022-10-04T01:12:59;2.05;;;1.95;;
51179;SDS011;37243;49.814;8.652;2022-10-04T01:15:35;2.40;;;2.25;;
51179;SDS011;37243;49.814;8.652;2022-10-04T01:18:17;2.08;;;1.98;;
51179;SDS011;37243;49.814;8.652;2022-10-04T01:20:56;2.00;;;1.90;;
51179;SDS011;37243;49.814;8.652;2022-10-04T01:23:33;1.95;;;1.85;;
51179;SDS011;37243;49.814;8.652;2022-10-04T01:26:05;1.90;;;1.80;;
51179;SDS011;37243;49.814;8.652;2022-10-04T01:29:00;2.00;;;1.90;;
51179;SDS011;37243;49.814;8.652;2022-10-04T01:31:33;1.80;;;1.70;;
51179;SDS011;37243;49.814;8.652;2022-10-04T01:34:03;1.98;;;1.88;;
51179;SDS011;37243;49.814;8.652;2022-10-04T01:36:33;1.90;;;1.80;;
51179;SDS011;37243;49.814;8.652;2022-10-04T01:39:04;1.92;;;1.83;;
51179;SDS011;37243;49.814;8.652;2022-10-04T01:41:39;1.90;;;1.80;;
51179;SDS011;37243;49.814;8.652;2022-10-04T01:44:15;1.83;;;1.73;;
51179;SDS011;37243;49.814;8.652;2022-10-04T01:46:49;1.90;;;1.80;;
51179;SDS011;37243;49.814;8.652;2022-10-04T01:49:22;1.70;;;1.60;;
51179;SDS011;37243;49.814;8.652;2022-10-04T01:51:57;1.42;;;1.42;;
51179;SDS011;37243;49.814;8.652;2022-10-04T01:54:34;1.77;;;1.67;;
51179;SDS011;37243;49.814;8.652;2022-10-04T01:57:10;1.88;;;1.77;;
51179;SDS011;37243;49.814;8.652;2022-10-04T01:59:43;1.80;;;1.70;;
51179;SDS011;37243;49.814;8.652;2022-10-04T02:02:20;1.48;;;1.48;;
51179;SDS011;37243;49.814;8.652;2022-10-04T02:04:58;1.60;;;1.58;;
51179;SDS011;37243;49.814;8.652;2022-10-04T02:07:30;1.90;;;1.80;;
51179;SDS011;37243;49.814;8.652;2022-10-04T02:10:06;1.95;;;1.85;;
51179;SDS011;37243;49.814;8.652;2022-10-04T02:12:37;1.85;;;1.75;;
51179;SDS011;37243;49.814;8.652;2022-10-04T02:15:11;1.67;;;1.58;;
51179;SDS011;37243;49.814;8.652;2022-10-04T02:17:41;1.73;;;1.63;;
51179;SDS011;37243;49.814;8.652;2022-10-04T02:20:12;1.70;;;1.60;;
51179;SDS011;37243;49.814;8.652;2022-10-04T02:22:42;1.60;;;1.60;;
51179;SDS011;37243;49.814;8.652;2022-10-04T02:25:14;1.45;;;1.40;;
51179;SDS011;37243;49.814;8.652;2022-10-04T02:27:45;1.75;;;1.65;;
51179;SDS011;37243;49.814;8.652;2022-10-04T02:30:14;1.92;;;1.83;;
51179;SDS011;37243;49.814;8.652;2022-10-04T02:32:42;2.00;;;1.90;;
51179;SDS011;37243;49.814;8.652;2022-10-04T02:35:24;1.50;;;1.40;;
51179;SDS011;37243;49.814;8.652;2022-10-04T02:37:59;1.70;;;1.60;;
51179;SDS011;37243;49.814;8.652;2022-10-04T02:40:34;1.85;;;1.75;;
51179;SDS011;37243;49.814;8.652;2022-10-04T02:43:08;1.63;;;1.52;;
51179;SDS011;37243;49.814;8.652;2022-10-04T02:45:44;2.90;;;1.70;;
51179;SDS011;37243;49.814;8.652;2022-10-04T02:51:05;1.40;;;1.40;;
51179;SDS011;37243;49.814;8.652;2022-10-04T02:53:51;1.60;;;1.50;;
51179;SDS011;37243;49.814;8.652;2022-10-04T02:56:27;1.80;;;1.70;;
51179;SDS011;37243;49.814;8.652;2022-10-04T02:58:58;1.38;;;1.38;;
51179;SDS011;37243;49.814;8.652;2022-10-04T03:01:35;1.73;;;1.70;;
51179;SDS011;37243;49.814;8.652;2022-10-04T03:04:10;1.60;;;1.50;;
51179;SDS011;37243;49.814;8.652;2022-10-04T03:06:41;1.70;;;1.60;;
51179;SDS011;37243;49.814;8.652;2022-10-04T03:09:11;1.80;;;1.70;;
51179;SDS011;37243;49.814;8.652;2022-10-04T03:11:44;1.73;;;1.63;;
51179;SDS011;37243;49.814;8.652;2022-10-04T03:14:14;1.67;;;1.58;;
51179;SDS011;37243;49.814;8.652;2022-10-04T03:16:46;1.60;;;1.60;;
51179;SDS011;37243;49.814;8.652;2022-10-04T03:19:18;1.45;;;1.40;;
51179;SDS011;37243;49.814;8.652;2022-10-04T03:21:49;1.52;;;1.52;;
51179;SDS011;37243;49.814;8.652;2022-10-04T03:24:20;1.40;;;1.40;;
51179;SDS011;37243;49.814;8.652;2022-10-04T03:26:57;1.30;;;1.30;;
51179;SDS011;37243;49.814;8.652;2022-10-04T03:29:28;1.52;;;1.52;;
51179;SDS011;37243;49.814;8.652;2022-10-04T03:31:59;1.55;;;1.50;;
51179;SDS011;37243;49.814;8.652;2022-10-04T03:34:32;1.63;;;1.52;;
51179;SDS011;37243;49.814;8.652;2022-10-04T03:37:05;1.40;;;1.40;;
51179;SDS011;37243;49.814;8.652;2022-10-04T03:39:36;1.10;;;1.10;;
51179;SDS011;37243;49.814;8.652;2022-10-04T03:42:11;1.73;;;1.63;;
51179;SDS011;37243;49.814;8.652;2022-10-04T03:44:42;1.40;;;1.30;;
51179;SDS011;37243;49.814;8.652;2022-10-04T03:47:12;1.50;;;1.50;;
51179;SDS011;37243;49.814;8.652;2022-10-04T03:49:46;1.67;;;1.58;;
51179;SDS011;37243;49.814;8.652;2022-10-04T03:52:16;1.60;;;1.50;;
51179;SDS011;37243;49.814;8.652;2022-10-04T03:54:48;1.27;;;1.25;;
51179;SDS011;37243;49.814;8.652;2022-10-04T03:57:21;1.40;;;1.40;;
51179;SDS011;37243;49.814;8.652;2022-10-04T03:59:50;1.27;;;1.27;;
51179;SDS011;37243;49.814;8.652;2022-10-04T04:02:20;1.70;;;1.60;;
51179;SDS011;37243;49.814;8.652;2022-10-04T04:05:01;1.50;;;1.50;;
51179;SDS011;37243;49.814;8.652;2022-10-04T04:07:37;1.33;;;1.33;;
51179;SDS011;37243;49.814;8.652;2022-10-04T04:10:13;1.70;;;1.60;;
51179;SDS011;37243;49.814;8.652;2022-10-04T04:12:52;1.30;;;1.30;;
51179;SDS011;37243;49.814;8.652;2022-10-04T04:15:25;1.60;;;1.50;;
51179;SDS011;37243;49.814;8.652;2022-10-04T04:17:55;1.13;;;1.10;;
51179;SDS011;37243;49.814;8.652;2022-10-04T04:20:29;1.30;;;1.30;;
51179;SDS011;37243;49.814;8.652;2022-10-04T04:23:01;1.30;;;1.30;;
51179;SDS011;37243;49.814;8.652;2022-10-04T04:25:36;1.25;;;1.15;;
51179;SDS011;37243;49.814;8.652;2022-10-04T04:28:10;1.27;;;1.27;;
51179;SDS011;37243;49.814;8.652;2022-10-04T04:30:50;1.20;;;1.20;;
51179;SDS011;37243;49.814;8.652;2022-10-04T04:33:22;1.30;;;1.30;;
51179;SDS011;37243;49.814;8.652;2022-10-04T04:35:54;1.35;;;1.35;;
51179;SDS011;37243;49.814;8.652;2022-10-04T04:38:29;1.40;;;1.40;;
51179;SDS011;37243;49.814;8.652;2022-10-04T04:41:05;0.93;;;0.93;;
51179;SDS011;37243;49.814;8.652;2022-10-04T04:43:41;1.45;;;1.35;;
51179;SDS011;37243;49.814;8.652;2022-10-04T04:46:10;1.30;;;1.30;;
51179;SDS011;37243;49.814;8.652;2022-10-04T04:48:41;1.38;;;1.20;;
51179;SDS011;37243;49.814;8.652;2022-10-04T04:51:11;0.95;;;0.95;;
51179;SDS011;37243;49.814;8.652;2022-10-04T04:53:46;1.10;;;1.10;;
51179;SDS011;37243;49.814;8.652;2022-10-04T04:56:15;1.15;;;1.10;;
51179;SDS011;37243;49.814;8.652;2022-10-04T04:58:48;1.13;;;1.13;;
51179;SDS011;37243;49.814;8.652;2022-10-04T05:01:21;1.35;;;1.33;;
51179;SDS011;37243;49.814;8.652;2022-10-04T05:04:00;1.40;;;1.40;;
51179;SDS011;37243;49.814;8.652;2022-10-04T05:06:30;1.23;;;1.23;;
51179;SDS011;37243;49.814;8.652;2022-10-04T05:09:00;1.20;;;1.20;;
51179;SDS011;37243;49.814;8.652;2022-10-04T05:11:30;1.33;;;1.33;;
51179;SDS011;37243;49.814;8.652;2022-10-04T05:14:04;1.27;;;1.27;;
51179;SDS011;37243;49.814;8.652;2022-10-04T05:16:36;3.22;;;1.08;;
51179;SDS011;37243;49.814;8.652;2022-10-04T05:19:11;1.42;;;1.40;;
51179;SDS011;37243;49.814;8.652;2022-10-04T05:21:46;1.23;;;1.23;;
51179;SDS011;37243;49.814;8.652;2022-10-04T05:24:18;1.50;;;1.40;;
51179;SDS011;37243;49.814;8.652;2022-10-04T05:26:50;1.40;;;1.40;;
51179;SDS011;37243;49.814;8.652;2022-10-04T05:29:24;1.58;;;1.35;;
51179;SDS011;37243;49.814;8.652;2022-10-04T05:31:57;1.40;;;1.40;;
51179;SDS011;37243;49.814;8.652;2022-10-04T05:34:35;1.83;;;1.30;;
51179;SDS011;37243;49.814;8.652;2022-10-04T05:40:02;1.50;;;1.17;;
51179;SDS011;37243;49.814;8.652;2022-10-04T05:42:41;1.65;;;1.45;;
51179;SDS011;37243;49.814;8.652;2022-10-04T05:45:15;3.08;;;1.80;;
51179;SDS011;37243;49.814;8.652;2022-10-04T05:47:48;8.20;;;1.63;;
51179;SDS011;37243;49.814;8.652;2022-10-04T05:50:18;2.92;;;1.75;;
51179;SDS011;37243;49.814;8.652;2022-10-04T05:52:51;1.58;;;1.48;;
51179;SDS011;37243;49.814;8.652;2022-10-04T05:55:22;8.82;;;2.10;;
51179;SDS011;37243;49.814;8.652;2022-10-04T05:57:58;1.98;;;1.77;;
51179;SDS011;37243;49.814;8.652;2022-10-04T06:00:49;1.95;;;1.75;;
51179;SDS011;37243;49.814;8.652;2022-10-04T06:03:36;4.55;;;1.95;;
51179;SDS011;37243;49.814;8.652;2022-10-04T06:06:15;1.58;;;1.48;;
51179;SDS011;37243;49.814;8.652;2022-10-04T06:08:55;1.80;;;1.58;;
51179;SDS011;37243;49.814;8.652;2022-10-04T06:11:37;3.22;;;1.52;;
51179;SDS011;37243;49.814;8.652;2022-10-04T06:14:19;3.53;;;1.88;;
51179;SDS011;37243;49.814;8.652;2022-10-04T06:17:10;2.78;;;2.05;;
51179;SDS011;37243;49.814;8.652;2022-10-04T06:22:51;2.22;;;1.50;;
51179;SDS011;37243;49.814;8.652;2022-10-04T06:25:26;1.73;;;1.63;;
51179;SDS011;37243;49.814;8.652;2022-10-04T06:27:59;1.73;;;1.63;;
51179;SDS011;37243;49.814;8.652;2022-10-04T06:30:40;4.20;;;1.88;;
51179;SDS011;37243;49.814;8.652;2022-10-04T06:33:29;3.03;;;2.00;;
51179;SDS011;37243;49.814;8.652;2022-10-04T06:39:18;2.35;;;2.15;;
51179;SDS011;37243;49.814;8.652;2022-10-04T06:42:06;3.33;;;1.85;;
51179;SDS011;37243;49.814;8.652;2022-10-04T06:44:53;2.20;;;1.85;;
51179;SDS011;37243;49.814;8.652;2022-10-04T06:47:33;2.42;;;2.22;;
51179;SDS011;37243;49.814;8.652;2022-10-04T06:50:23;2.00;;;1.90;;
51179;SDS011;37243;49.814;8.652;2022-10-04T06:53:00;1.85;;;1.75;;
51179;SDS011;37243;49.814;8.652;2022-10-04T06:55:47;1.98;;;1.85;;
51179;SDS011;37243;49.814;8.652;2022-10-04T07:01:33;1.95;;;1.85;;
51179;SDS011;37243;49.814;8.652;2022-10-04T07:04:05;2.00;;;1.90;;
51179;SDS011;37243;49.814;8.652;2022-10-04T07:06:50;2.25;;;2.08;;
51179;SDS011;37243;49.814;8.652;2022-10-04T07:09:43;2.15;;;1.95;;
51179;SDS011;37243;49.814;8.652;2022-10-04T07:12:13;2.13;;;1.92;;
51179;SDS011;37243;49.814;8.652;2022-10-04T07:14:44;2.92;;;2.22;;
51179;SDS011;37243;49.814;8.652;2022-10-04T07:17:16;2.28;;;2.08;;
51179;SDS011;37243;49.814;8.652;2022-10-04T07:19:51;2.25;;;2.15;;
51179;SDS011;37243;49.814;8.652;2022-10-04T07:22:25;1.80;;;1.70;;
51179;SDS011;37243;49.814;8.652;2022-10-04T07:24:58;2.47;;;1.92;;
51179;SDS011;37243;49.814;8.652;2022-10-04T07:27:36;2.58;;;2.10;;
51179;SDS011;37243;49.814;8.652;2022-10-04T07:30:14;1.88;;;1.77;;
51179;SDS011;37243;49.814;8.652;2022-10-04T07:32:43;2.10;;;2.00;;
51179;SDS011;37243;49.814;8.652;2022-10-04T07:35:25;2.30;;;1.92;;
51179;SDS011;37243;49.814;8.652;2022-10-04T07:38:04;2.05;;;1.63;;
51179;SDS011;37243;49.814;8.652;2022-10-04T07:40:38;1.92;;;1.83;;
51179;SDS011;37243;49.814;8.652;2022-10-04T07:43:12;2.25;;;2.15;;
51179;SDS011;37243;49.814;8.652;2022-10-04T07:45:50;2.00;;;1.90;;
51179;SDS011;37243;49.814;8.652;2022-10-04T07:48:30;2.05;;;1.90;;
51179;SDS011;37243;49.814;8.652;2022-10-04T07:51:00;2.15;;;1.80;;
51179;SDS011;37243;49.814;8.652;2022-10-04T07:53:40;2.08;;;1.98;;
51179;SDS011;37243;49.814;8.652;2022-10-04T07:56:15;3.70;;;1.60;;
51179;SDS011;37243;49.814;8.652;2022-10-04T07:58:47;2.05;;;1.95;;
51179;SDS011;37243;49.814;8.652;2022-10-04T08:01:25;2.13;;;1.70;;
51179;SDS011;37243;49.814;8.652;2022-10-04T08:04:04;2.13;;;2.03;;
51179;SDS011;37243;49.814;8.652;2022-10-04T08:06:50;2.00;;;1.90;;
51179;SDS011;37243;49.814;8.652;2022-10-04T08:09:31;2.22;;;2.03;;
51179;SDS011;37243;49.814;8.652;2022-10-04T08:12:13;2.95;;;2.10;;
51179;SDS011;37243;49.814;8.652;2022-10-04T08:15:02;2.20;;;2.00;;
51179;SDS011;37243;49.814;8.652;2022-10-04T08:17:46;2.40;;;2.30;;
51179;SDS011;37243;49.814;8.652;2022-10-04T08:20:26;1.80;;;1.70;;
51179;SDS011;37243;49.814;8.652;2022-10-04T08:26:06;1.90;;;1.80;;
51179;SDS011;37243;49.814;8.652;2022-10-04T08:28:48;1.85;;;1.75;;
51179;SDS011;37243;49.814;8.652;2022-10-04T08:31:39;2.13;;;2.03;;
51179;SDS011;37243;49.814;8.652;2022-10-04T08:34:28;2.08;;;1.98;;
51179;SDS011;37243;49.814;8.652;2022-10-04T08:37:12;1.60;;;1.60;;
51179;SDS011;37243;49.814;8.652;2022-10-04T08:39:53;1.85;;;1.75;;
51179;SDS011;37243;49.814;8.652;2022-10-04T08:42:49;2.22;;;2.10;;
51179;SDS011;37243;49.814;8.652;2022-10-04T08:48:31;1.88;;;1.77;;
51179;SDS011;37243;49.814;8.652;2022-10-04T08:51:25;2.08;;;1.98;;
51179;SDS011;37243;49.814;8.652;2022-10-04T08:54:20;1.88;;;1.77;;
51179;SDS011;37243;49.814;8.652;2022-10-04T09:00:23;1.73;;;1.63;;
51179;SDS011;37243;49.814;8.652;2022-10-04T09:06:25;1.95;;;1.85;;
51179;SDS011;37243;49.814;8.652;2022-10-04T09:09:25;1.77;;;1.70;;
51179;SDS011;37243;49.814;8.652;2022-10-04T09:12:13;1.92;;;1.83;;
51179;SDS011;37243;49.814;8.652;2022-10-04T09:15:01;1.90;;;1.80;;
51179;SDS011;37243;49.814;8.652;2022-10-04T09:17:45;2.05;;;1.95;;
51179;SDS011;37243;49.814;8.652;2022-10-04T09:20:21;1.92;;;1.83;;
51179;SDS011;37243;49.814;8.652;2022-10-04T09:23:03;2.00;;;1.90;;
51179;SDS011;37243;49.814;8.652;2022-10-04T09:25:48;1.77;;;1.67;;
51179;SDS011;37243;49.814;8.652;2022-10-04T09:28:48;1.92;;;1.83;;
51179;SDS011;37243;49.814;8.652;2022-10-04T09:31:39;1.63;;;1.63;;
51179;SDS011;37243;49.814;8.652;2022-10-04T09:34:32;1.90;;;1.80;;
51179;SDS011;37243;49.814;8.652;2022-10-04T09:37:20;1.98;;;1.88;;
51179;SDS011;37243;49.814;8.652;2022-10-04T09:40:20;1.70;;;1.60;;
51179;SDS011;37243;49.814;8.652;2022-10-04T09:43:25;1.90;;;1.80;;
51179;SDS011;37243;49.814;8.652;2022-10-04T09:49:37;1.63;;;1.52;;
51179;SDS011;37243;49.814;8.652;2022-10-04T09:52:38;1.98;;;1.88;;
51179;SDS011;37243;49.814;8.652;2022-10-04T09:55:23;1.70;;;1.70;;
51179;SDS011;37243;49.814;8.652;2022-10-04T09:58:15;1.77;;;1.67;;
51179;SDS011;37243;49.814;8.652;2022-10-04T10:01:04;2.00;;;1.90;;
51179;SDS011;37243;49.814;8.652;2022-10-04T10:03:48;1.70;;;1.70;;
51179;SDS011;37243;49.814;8.652;2022-10-04T10:06:33;1.92;;;1.83;;
51179;SDS011;37243;49.814;8.652;2022-10-04T10:09:15;1.98;;;1.88;;
51179;SDS011;37243;49.814;8.652;2022-10-04T10:12:19;1.73;;;1.50;;
51179;SDS011;37243;49.814;8.652;2022-10-04T10:15:22;1.50;;;1.50;;
51179;SDS011;37243;49.814;8.652;2022-10-04T10:17:59;1.92;;;1.83;;
51179;SDS011;37243;49.814;8.652;2022-10-04T10:26:39;1.80;;;1.70;;
51179;SDS011;37243;49.814;8.652;2022-10-04T10:32:23;1.73;;;1.63;;
51179;SDS011;37243;49.814;8.652;2022-10-04T10:35:14;1.65;;;1.55;;
51179;SDS011;37243;49.814;8.652;2022-10-04T10:37:56;1.80;;;1.70;;
51179;SDS011;37243;49.814;8.652;2022-10-04T10:40:48;1.75;;;1.65;;
51179;SDS011;37243;49.814;8.652;2022-10-04T10:43:30;1.90;;;1.80;;
51179;SDS011;37243;49.814;8.652;2022-10-04T10:46:22;1.80;;;1.70;;
51179;SDS011;37243;49.814;8.652;2022-10-04T10:49:16;1.85;;;1.75;;
51179;SDS011;37243;49.814;8.652;2022-10-04T10:58:49;1.88;;;1.77;;
51179;SDS011;37243;49.814;8.652;2022-10-04T11:01:39;1.90;;;1.80;;
51179;SDS011;37243;49.814;8.652;2022-10-04T11:04:35;1.98;;;1.88;;
51179;SDS011;37243;49.814;8.652;2022-10-04T11:07:33;1.58;;;1.48;;
51179;SDS011;37243;49.814;8.652;2022-10-04T11:10:21;2.40;;;1.65;;
51179;SDS011;37243;49.814;8.652;2022-10-04T11:13:18;1.70;;;1.60;;
51179;SDS011;37243;49.814;8.652;2022-10-04T11:16:16;1.70;;;1.60;;
51179;SDS011;37243;49.814;8.652;2022-10-04T11:19:09;1.80;;;1.70;;
51179;SDS011;37243;49.814;8.652;2022-10-04T11:24:53;1.80;;;1.70;;
51179;SDS011;37243;49.814;8.652;2022-10-04T11:27:43;1.70;;;1.60;;
51179;SDS011;37243;49.814;8.652;2022-10-04T11:30:17;1.70;;;1.60;;
51179;SDS011;37243;49.814;8.652;2022-10-04T11:36:05;1.67;;;1.58;;
51179;SDS011;37243;49.814;8.652;2022-10-04T11:39:15;1.75;;;1.65;;
51179;SDS011;37243;49.814;8.652;2022-10-04T11:41:59;1.50;;;1.50;;
51179;SDS011;37243;49.814;8.652;2022-10-04T11:44:53;1.98;;;1.40;;
51179;SDS011;37243;49.814;8.652;2022-10-04T11:47:40;1.45;;;1.45;;
51179;SDS011;37243;49.814;8.652;2022-10-04T11:50:21;1.20;;;1.20;;
51179;SDS011;37243;49.814;8.652;2022-10-04T11:56:01;1.58;;;1.48;;
51179;SDS011;37243;49.814;8.652;2022-10-04T11:58:46;1.60;;;1.55;;
51179;SDS011;37243;49.814;8.652;2022-10-04T12:01:38;1.55;;;1.55;;
51179;SDS011;37243;49.814;8.652;2022-10-04T12:04:39;1.60;;;1.50;;
51179;SDS011;37243;49.814;8.652;2022-10-04T12:07:37;1.63;;;1.52;;
51179;SDS011;37243;49.814;8.652;2022-10-04T12:10:21;1.50;;;1.45;;
51179;SDS011;37243;49.814;8.652;2022-10-04T12:13:08;1.60;;;1.50;;
51179;SDS011;37243;49.814;8.652;2022-10-04T12:16:04;1.50;;;1.40;;
51179;SDS011;37243;49.814;8.652;2022-10-04T12:19:02;1.60;;;1.50;;
51179;SDS011;37243;49.814;8.652;2022-10-04T12:22:05;1.50;;;1.40;;
51179;SDS011;37243;49.814;8.652;2022-10-04T12:24:56;1.50;;;1.40;;
51179;SDS011;37243;49.814;8.652;2022-10-04T12:31:00;1.77;;;1.67;;
51179;SDS011;37243;49.814;8.652;2022-10-04T12:33:48;1.60;;;1.50;;
51179;SDS011;37243;49.814;8.652;2022-10-04T12:36:30;1.63;;;1.50;;
51179;SDS011;37243;49.814;8.652;2022-10-04T12:42:19;1.50;;;1.40;;
51179;SDS011;37243;49.814;8.652;2022-10-04T12:45:03;1.70;;;1.60;;
51179;SDS011;37243;49.814;8.652;2022-10-04T12:47:51;3.50;;;1.80;;
51179;SDS011;37243;49.814;8.652;2022-10-04T12:50:31;2.72;;;1.77;;
51179;SDS011;37243;49.814;8.652;2022-10-04T12:53:16;2.25;;;2.08;;
51179;SDS011;37243;49.814;8.652;2022-10-04T12:56:03;2.83;;;1.83;;
51179;SDS011;37243;49.814;8.652;2022-10-04T12:58:41;3.70;;;1.80;;
51179;SDS011;37243;49.814;8.652;2022-10-04T13:01:24;3.63;;;2.10;;
51179;SDS011;37243;49.814;8.652;2022-10-04T13:04:02;2.45;;;2.28;;
51179;SDS011;37243;49.814;8.652;2022-10-04T13:06:41;2.10;;;1.88;;
51179;SDS011;37243;49.814;8.652;2022-10-04T13:09:22;3.00;;;2.08;;
51179;SDS011;37243;49.814;8.652;2022-10-04T13:12:05;2.75;;;1.70;;
51179;SDS011;37243;49.814;8.652;2022-10-04T13:14:54;2.13;;;1.88;;
51179;SDS011;37243;49.814;8.652;2022-10-04T13:17:42;1.90;;;1.80;;
51179;SDS011;37243;49.814;8.652;2022-10-04T13:20:19;3.83;;;1.90;;
51179;SDS011;37243;49.814;8.652;2022-10-04T13:22:58;2.53;;;1.90;;
51179;SDS011;37243;49.814;8.652;2022-10-04T13:25:39;2.97;;;1.70;;
51179;SDS011;37243;49.814;8.652;2022-10-04T13:28:35;2.35;;;1.98;;
51179;SDS011;37243;49.814;8.652;2022-10-04T13:31:12;1.90;;;1.80;;
51179;SDS011;37243;49.814;8.652;2022-10-04T13:33:54;1.65;;;1.55;;
51179;SDS011;37243;49.814;8.652;2022-10-04T13:36:41;2.15;;;1.80;;
51179;SDS011;37243;49.814;8.652;2022-10-04T13:39:24;1.90;;;1.80;;
51179;SDS011;37243;49.814;8.652;2022-10-04T13:42:15;1.58;;;1.48;;
51179;SDS011;37243;49.814;8.652;2022-10-04T13:45:09;1.52;;;1.45;;
51179;SDS011;37243;49.814;8.652;2022-10-04T13:47:55;1.70;;;1.60;;
51179;SDS011;37243;49.814;8.652;2022-10-04T13:50:41;2.33;;;1.65;;
51179;SDS011;37243;49.814;8.652;2022-10-04T13:53:23;2.15;;;1.83;;
51179;SDS011;37243;49.814;8.652;2022-10-04T13:56:18;1.40;;;1.30;;
51179;SDS011;37243;49.814;8.652;2022-10-04T13:59:06;1.38;;;1.38;;
51179;SDS011;37243;49.814;8.652;2022-10-04T14:05:02;2.50;;;1.45;;
51179;SDS011;37243;49.814;8.652;2022-10-04T14:17:18;1.65;;;1.55;;
51179;SDS011;37243;49.814;8.652;2022-10-04T14:20:09;1.50;;;1.40;;
51179;SDS011;37243;49.814;8.652;2022-10-04T14:26:13;2.00;;;1.80;;
51179;SDS011;37243;49.814;8.652;2022-10-04T14:35:02;2.80;;;1.73;;
51179;SDS011;37243;49.814;8.652;2022-10-04T14:37:45;1.55;;;1.50;;
51179;SDS011;37243;49.814;8.652;2022-10-04T14:40:38;3.08;;;1.65;;
51179;SDS011;37243;49.814;8.652;2022-10-04T14:43:17;1.88;;;1.50;;
51179;SDS011;37243;49.814;8.652;2022-10-04T14:46:09;1.63;;;1.52;;
51179;SDS011;37243;49.814;8.652;2022-10-04T14:48:50;2.30;;;1.80;;
51179;SDS011;37243;49.814;8.652;2022-10-04T14:51:38;2.95;;;1.70;;
51179;SDS011;37243;49.814;8.652;2022-10-04T14:54:17;1.30;;;1.30;;
51179;SDS011;37243;49.814;8.652;2022-10-04T14:57:00;1.45;;;1.35;;
51179;SDS011;37243;49.814;8.652;2022-10-04T14:59:36;1.65;;;1.55;;
51179;SDS011;37243;49.814;8.652;2022-10-04T15:02:22;1.52;;;1.42;;
51179;SDS011;37243;49.814;8.652;2022-10-04T15:08:13;2.22;;;1.50;;
51179;SDS011;37243;49.814;8.652;2022-10-04T15:10:53;2.28;;;1.50;;
51179;SDS011;37243;49.814;8.652;2022-10-04T15:13:26;1.73;;;1.52;;
51179;SDS011;37243;49.814;8.652;2022-10-04T15:16:07;1.95;;;1.30;;
51179;SDS011;37243;49.814;8.652;2022-10-04T15:18:47;2.22;;;1.88;;
51179;SDS011;37243;49.814;8.652;2022-10-04T15:21:29;2.20;;;1.70;;
51179;SDS011;37243;49.814;8.652;2022-10-04T15:30:19;1.95;;;1.50;;
51179;SDS011;37243;49.814;8.652;2022-10-04T15:32:54;2.72;;;1.85;;
51179;SDS011;37243;49.814;8.652;2022-10-04T15:35:36;2.35;;;1.50;;
51179;SDS011;37243;49.814;8.652;2022-10-04T15:38:14;1.30;;;1.30;;
51179;SDS011;37243;49.814;8.652;2022-10-04T15:40:56;1.48;;;1.30;;
51179;SDS011;37243;49.814;8.652;2022-10-04T15:43:30;1.60;;;1.50;;
51179;SDS011;37243;49.814;8.652;2022-10-04T15:46:07;2.10;;;1.45;;
51179;SDS011;37243;49.814;8.652;2022-10-04T15:49:05;1.67;;;1.52;;
51179;SDS011;37243;49.814;8.652;2022-10-04T15:52:00;1.48;;;1.38;;
51179;SDS011;37243;49.814;8.652;2022-10-04T15:54:42;4.53;;;1.50;;
51179;SDS011;37243;49.814;8.652;2022-10-04T15:57:26;1.48;;;1.38;;
51179;SDS011;37243;49.814;8.652;2022-10-04T16:00:03;3.97;;;1.38;;
51179;SDS011;37243;49.814;8.652;2022-10-04T16:02:47;2.20;;;1.50;;
51179;SDS011;37243;49.814;8.652;2022-10-04T16:05:26;2.17;;;1.60;;
51179;SDS011;37243;49.814;8.652;2022-10-04T16:08:04;2.97;;;1.50;;
51179;SDS011;37243;49.814;8.652;2022-10-04T16:13:58;1.63;;;1.48;;
51179;SDS011;37243;49.814;8.652;2022-10-04T16:19:42;2.85;;;1.60;;
51179;SDS011;37243;49.814;8.652;2022-10-04T16:22:31;4.40;;;1.70;;
51179;SDS011;37243;49.814;8.652;2022-10-04T16:28:03;2.13;;;1.40;;
51179;SDS011;37243;49.814;8.652;2022-10-04T16:30:42;3.58;;;1.40;;
51179;SDS011;37243;49.814;8.652;2022-10-04T16:33:27;1.77;;;1.40;;
51179;SDS011;37243;49.814;8.652;2022-10-04T16:36:08;1.67;;;1.58;;
51179;SDS011;37243;49.814;8.652;2022-10-04T16:38:44;1.65;;;1.50;;
51179;SDS011;37243;49.814;8.652;2022-10-04T16:41:29;1.98;;;1.77;;
51179;SDS011;37243;49.814;8.652;2022-10-04T16:44:06;3.67;;;1.35;;
51179;SDS011;37243;49.814;8.652;2022-10-04T16:46:51;1.42;;;1.33;;
51179;SDS011;37243;49.814;8.652;2022-10-04T16:49:23;1.63;;;1.52;;
51179;SDS011;37243;49.814;8.652;2022-10-04T16:51:58;1.60;;;1.50;;
51179;SDS011;37243;49.814;8.652;2022-10-04T16:54:58;3.85;;;1.70;;
51179;SDS011;37243;49.814;8.652;2022-10-04T16:57:30;2.45;;;1.27;;
51179;SDS011;37243;49.814;8.652;2022-10-04T16:59:59;1.60;;;1.50;;
51179;SDS011;37243;49.814;8.652;2022-10-04T17:03:01;1.60;;;1.50;;
51179;SDS011;37243;49.814;8.652;2022-10-04T17:05:43;1.48;;;1.40;;
51179;SDS011;37243;49.814;8.652;2022-10-04T17:08:23;1.98;;;1.40;;
51179;SDS011;37243;49.814;8.652;2022-10-04T17:11:16;1.60;;;1.40;;
51179;SDS011;37243;49.814;8.652;2022-10-04T17:14:00;3.58;;;1.30;;
51179;SDS011;37243;49.814;8.652;2022-10-04T17:16:35;1.10;;;1.10;;
51179;SDS011;37243;49.814;8.652;2022-10-04T17:19:15;1.30;;;1.20;;
51179;SDS011;37243;49.814;8.652;2022-10-04T17:21:56;2.08;;;1.42;;
51179;SDS011;37243;49.814;8.652;2022-10-04T17:24:35;2.95;;;1.50;;
51179;SDS011;37243;49.814;8.652;2022-10-04T17:27:17;4.18;;;1.65;;
51179;SDS011;37243;49.814;8.652;2022-10-04T17:29:56;2.25;;;1.38;;
51179;SDS011;37243;49.814;8.652;2022-10-04T17:32:34;3.33;;;1.35;;
51179;SDS011;37243;49.814;8.652;2022-10-04T17:35:30;1.60;;;1.50;;
51179;SDS011;37243;49.814;8.652;2022-10-04T17:38:19;2.15;;;1.52;;
51179;SDS011;37243;49.814;8.652;2022-10-04T17:40:56;1.60;;;1.50;;
51179;SDS011;37243;49.814;8.652;2022-10-04T17:43:32;1.80;;;1.48;;
51179;SDS011;37243;49.814;8.652;2022-10-04T17:46:11;3.35;;;1.40;;
51179;SDS011;37243;49.814;8.652;2022-10-04T17:48:48;2.22;;;1.40;;
51179;SDS011;37243;49.814;8.652;2022-10-04T17:51:43;2.40;;;1.38;;
51179;SDS011;37243;49.814;8.652;2022-10-04T17:54:26;2.50;;;1.40;;
51179;SDS011;37243;49.814;8.652;2022-10-04T17:57:13;2.65;;;1.40;;
51179;SDS011;37243;49.814;8.652;2022-10-04T17:59:50;3.03;;;1.40;;
51179;SDS011;37243;49.814;8.652;2022-10-04T18:02:23;1.83;;;1.50;;